Time;durP1;ratioP1;P1;durP2;ratioP2;P2;SDS_P1;SDS_P2;PMS_P1;PMS_P2;Temp;Humidity;BMP_temperature;BMP_pressure;BME280_temperature;BME280_humidity;BME280_pressure;Samples;Min_cycle;Max_cycle;Signal;HPM_P1;HPM_P2
2022/08/09 00:00:37;;;;;;;2.07;1.73;;;;;;;;;;5076143;28;20627;-71
2022/08/09 00:03:04;;;;;;;3.33;1.60;;;;;;;;;;5076329;28;20254;-71
2022/08/09 00:05:30;;;;;;;5.23;1.63;;;;;;;;;;5068168;28;20197;-71
2022/08/09 00:07:56;;;;;;;4.10;1.90;;;;;;;;;;5052535;28;20670;-71
2022/08/09 00:10:22;;;;;;;3.83;1.77;;;;;;;;;;5072067;28;20199;-71
2022/08/09 00:12:49;;;;;;;3.43;1.60;;;;;;;;;;5071971;28;20180;-71
2022/08/09 00:15:15;;;;;;;2.57;1.70;;;;;;;;;;5074842;28;20234;-71
2022/08/09 00:17:41;;;;;;;5.20;1.87;;;;;;;;;;5071428;28;20205;-71
2022/08/09 00:20:07;;;;;;;6.43;2.07;;;;;;;;;;5069279;28;20185;-71
2022/08/09 00:22:33;;;;;;;1.63;1.53;;;;;;;;;;5057842;28;20203;-71
2022/08/09 00:25:00;;;;;;;2.27;1.83;;;;;;;;;;5069883;28;20173;-71
2022/08/09 00:27:26;;;;;;;1.73;1.60;;;;;;;;;;5070838;28;20208;-71
2022/08/09 00:29:52;;;;;;;3.60;1.87;;;;;;;;;;5085246;28;20185;-71
2022/08/09 00:32:18;;;;;;;3.47;1.70;;;;;;;;;;5076022;28;20204;-71
2022/08/09 00:34:44;;;;;;;3.00;1.77;;;;;;;;;;5071806;28;20172;-71
2022/08/09 00:37:10;;;;;;;7.13;2.20;;;;;;;;;;5056858;28;20173;-71
2022/08/09 00:39:36;;;;;;;1.63;1.50;;;;;;;;;;5064925;28;20599;-71
2022/08/09 00:42:03;;;;;;;3.80;1.70;;;;;;;;;;5085214;28;20234;-71
2022/08/09 00:44:29;;;;;;;4.00;1.77;;;;;;;;;;5070737;28;20181;-71
2022/08/09 00:46:55;;;;;;;2.13;1.80;;;;;;;;;;5076765;28;20341;-71
2022/08/09 00:49:21;;;;;;;3.47;1.70;;;;;;;;;;5070935;28;20639;-71
2022/08/09 00:51:48;;;;;;;2.93;1.70;;;;;;;;;;5076654;28;20208;-71
2022/08/09 00:54:14;;;;;;;3.33;1.97;;;;;;;;;;5070576;28;20280;-71
2022/08/09 00:56:40;;;;;;;2.13;1.70;;;;;;;;;;5068542;28;20200;-71
2022/08/09 00:59:07;;;;;;;3.60;1.70;;;;;;;;;;5066412;28;20208;-71
2022/08/09 01:01:39;;;;;;;4.23;1.73;;;;;;;;;;5081862;28;20168;-71
2022/08/09 01:04:12;;;;;;;2.57;1.90;;;;;;;;;;5092388;28;20200;-71
2022/08/09 01:06:42;;;;;;;4.20;1.97;;;;;;;;;;5070773;28;20579;-71
2022/08/09 01:09:08;;;;;;;4.33;1.70;;;;;;;;;;5091989;28;20188;-71
2022/08/09 01:11:57;;;;;;;3.90;1.73;;;;;;;;;;5072584;28;20198;-71
2022/08/09 01:14:29;;;;;;;2.87;1.90;;;;;;;;;;5053057;28;20205;-71
2022/08/09 01:17:00;;;;;;;6.20;1.83;;;;;;;;;;5077667;28;20205;-71
2022/08/09 01:19:45;;;;;;;3.87;1.80;;;;;;;;;;5076306;28;20679;-71
2022/08/09 01:22:17;;;;;;;3.77;1.73;;;;;;;;;;5075778;28;20653;-71
2022/08/09 01:24:48;;;;;;;3.43;2.00;;;;;;;;;;5086447;28;20536;-71
2022/08/09 01:27:16;;;;;;;2.53;1.90;;;;;;;;;;5064222;28;20685;-71
2022/08/09 01:29:51;;;;;;;4.10;2.10;;;;;;;;;;5082639;28;20268;-71
2022/08/09 01:32:18;;;;;;;2.63;1.87;;;;;;;;;;5069129;28;20614;-71
2022/08/09 01:34:46;;;;;;;4.53;1.80;;;;;;;;;;5071595;28;20256;-71
2022/08/09 01:37:14;;;;;;;5.83;2.10;;;;;;;;;;5067542;28;20220;-71
2022/08/09 01:39:40;;;;;;;6.20;2.20;;;;;;;;;;5065860;28;20180;-71
2022/08/09 01:42:07;;;;;;;2.07;1.90;;;;;;;;;;5082474;28;20188;-71
2022/08/09 01:44:34;;;;;;;3.33;2.10;;;;;;;;;;5089099;28;20673;-71
2022/08/09 01:47:01;;;;;;;3.30;1.87;;;;;;;;;;5052356;28;20194;-71
2022/08/09 01:49:29;;;;;;;4.47;1.93;;;;;;;;;;5052404;28;20252;-71
2022/08/09 01:51:58;;;;;;;2.10;1.90;;;;;;;;;;5063871;28;20310;-71
2022/08/09 01:54:30;;;;;;;2.97;1.83;;;;;;;;;;5077745;28;20188;-71
2022/08/09 01:56:57;;;;;;;2.70;1.70;;;;;;;;;;5069514;28;20262;-71
2022/08/09 01:59:24;;;;;;;3.87;1.80;;;;;;;;;;5074268;28;20208;-71
2022/08/09 02:01:53;;;;;;;2.33;1.70;;;;;;;;;;5074902;28;20443;-71
2022/08/09 02:04:20;;;;;;;4.07;1.87;;;;;;;;;;5070351;28;20181;-71
2022/08/09 02:09:33;;;;;;;2.77;2.00;;;;;;;;;;5065440;28;20188;-71
2022/08/09 02:12:00;;;;;;;3.30;1.90;;;;;;;;;;5067455;28;20665;-71
2022/08/09 02:14:27;;;;;;;2.63;1.90;;;;;;;;;;5069141;28;20177;-71
2022/08/09 02:16:54;;;;;;;4.00;1.90;;;;;;;;;;5070146;28;20205;-71
2022/08/09 02:19:20;;;;;;;2.70;1.97;;;;;;;;;;5056386;28;20205;-71
2022/08/09 02:21:47;;;;;;;2.70;1.90;;;;;;;;;;5065414;28;20189;-71
2022/08/09 02:24:15;;;;;;;1.83;1.73;;;;;;;;;;5068941;28;20185;-71
2022/08/09 02:26:42;;;;;;;3.30;1.80;;;;;;;;;;5078799;28;20600;-71
2022/08/09 02:29:23;;;;;;;2.33;1.60;;;;;;;;;;5076838;28;20200;-71
2022/08/09 02:31:50;;;;;;;2.03;1.63;;;;;;;;;;5072723;28;20192;-71
2022/08/09 02:34:18;;;;;;;2.33;1.90;;;;;;;;;;5070957;28;20842;-71
2022/08/09 02:36:46;;;;;;;2.93;1.90;;;;;;;;;;5062519;28;20640;-71
2022/08/09 02:39:15;;;;;;;3.07;1.83;;;;;;;;;;5071572;28;20606;-71
2022/08/09 02:41:43;;;;;;;3.47;2.00;;;;;;;;;;5068801;28;20189;-71
2022/08/09 02:44:12;;;;;;;3.57;2.00;;;;;;;;;;5069663;28;20263;-71
2022/08/09 02:46:39;;;;;;;3.10;1.80;;;;;;;;;;5070494;28;20224;-71
2022/08/09 02:49:08;;;;;;;2.93;1.70;;;;;;;;;;5065330;28;20232;-71
2022/08/09 02:51:39;;;;;;;3.63;1.70;;;;;;;;;;5063854;28;20194;-71
2022/08/09 02:54:06;;;;;;;4.87;2.00;;;;;;;;;;5056568;28;20182;-71
2022/08/09 02:56:32;;;;;;;3.03;1.77;;;;;;;;;;5073361;28;20227;-71
2022/08/09 02:59:01;;;;;;;2.73;1.90;;;;;;;;;;5086338;28;20197;-71
2022/08/09 03:01:28;;;;;;;2.17;1.70;;;;;;;;;;5069158;28;20631;-71
2022/08/09 03:03:55;;;;;;;2.33;1.90;;;;;;;;;;5065707;28;20200;-71
2022/08/09 03:06:21;;;;;;;2.40;1.80;;;;;;;;;;5072383;28;20196;-71
2022/08/09 03:08:48;;;;;;;3.23;2.00;;;;;;;;;;5070271;28;20177;-71
2022/08/09 03:11:16;;;;;;;2.43;1.90;;;;;;;;;;5062230;28;20708;-71
2022/08/09 03:13:44;;;;;;;2.77;1.83;;;;;;;;;;5094037;28;20173;-71
2022/08/09 03:16:12;;;;;;;3.50;2.00;;;;;;;;;;5068710;28;20213;-71
2022/08/09 03:18:39;;;;;;;2.17;1.93;;;;;;;;;;5075886;28;20212;-71
2022/08/09 03:21:06;;;;;;;3.47;2.00;;;;;;;;;;5078554;28;20189;-71
2022/08/09 03:23:32;;;;;;;3.00;1.97;;;;;;;;;;5072973;28;20186;-71
2022/08/09 03:25:59;;;;;;;6.00;2.00;;;;;;;;;;5071823;28;20569;-71
2022/08/09 03:28:26;;;;;;;2.80;1.90;;;;;;;;;;5070099;28;20189;-71
2022/08/09 03:30:53;;;;;;;2.23;2.03;;;;;;;;;;5085229;28;20218;-71
2022/08/09 03:33:20;;;;;;;2.90;1.73;;;;;;;;;;5074846;28;20228;-71
2022/08/09 03:35:47;;;;;;;2.43;1.90;;;;;;;;;;5070046;28;20194;-71
2022/08/09 03:38:13;;;;;;;2.43;1.90;;;;;;;;;;5088666;28;20295;-71
2022/08/09 03:40:39;;;;;;;4.23;1.90;;;;;;;;;;5062967;28;20204;-71
2022/08/09 03:43:05;;;;;;;3.13;1.90;;;;;;;;;;5079272;28;20177;-71
2022/08/09 03:45:31;;;;;;;3.93;1.80;;;;;;;;;;5071010;28;20204;-71
2022/08/09 03:47:57;;;;;;;4.37;1.80;;;;;;;;;;5072496;28;20661;-71
2022/08/09 03:50:26;;;;;;;3.40;1.70;;;;;;;;;;5075235;28;20188;-71
2022/08/09 03:52:52;;;;;;;3.60;1.90;;;;;;;;;;5067112;28;20186;-71
2022/08/09 03:55:19;;;;;;;2.50;1.60;;;;;;;;;;5055206;28;20225;-71
2022/08/09 03:57:47;;;;;;;2.83;1.80;;;;;;;;;;5073182;28;20197;-71
2022/08/09 04:00:13;;;;;;;3.27;1.83;;;;;;;;;;5070884;28;20541;-71
2022/08/09 04:02:42;;;;;;;2.03;1.80;;;;;;;;;;5069620;28;20575;-71
2022/08/09 04:05:09;;;;;;;2.67;1.90;;;;;;;;;;5071979;28;20217;-71
2022/08/09 04:07:36;;;;;;;2.00;1.70;;;;;;;;;;5082415;28;20180;-71
2022/08/09 04:10:02;;;;;;;3.13;2.03;;;;;;;;;;5056453;28;20208;-71
2022/08/09 04:12:35;;;;;;;2.23;1.90;;;;;;;;;;5075295;28;20237;-71
2022/08/09 04:15:01;;;;;;;2.33;1.90;;;;;;;;;;5092628;28;20539;-71
2022/08/09 04:17:27;;;;;;;2.03;1.83;;;;;;;;;;5055261;28;20683;-71
2022/08/09 04:19:54;;;;;;;2.63;1.70;;;;;;;;;;5063773;28;20600;-71
2022/08/09 04:22:20;;;;;;;3.43;2.00;;;;;;;;;;5076660;28;20181;-71
2022/08/09 04:24:46;;;;;;;2.30;1.90;;;;;;;;;;5092970;28;20184;-71
2022/08/09 04:27:12;;;;;;;2.77;1.90;;;;;;;;;;5070043;28;20698;-71
2022/08/09 04:29:38;;;;;;;2.67;1.80;;;;;;;;;;5068789;28;20205;-71
2022/08/09 04:32:04;;;;;;;3.00;2.10;;;;;;;;;;5056116;28;20311;-71
2022/08/09 04:34:32;;;;;;;3.90;2.13;;;;;;;;;;5072085;28;20169;-71
2022/08/09 04:36:59;;;;;;;3.90;2.30;;;;;;;;;;5065332;28;20228;-71
2022/08/09 04:39:26;;;;;;;5.70;2.37;;;;;;;;;;5088546;28;20255;-71
2022/08/09 04:41:52;;;;;;;5.07;2.80;;;;;;;;;;5092320;28;20200;-71
2022/08/09 04:44:18;;;;;;;5.00;2.90;;;;;;;;;;5092631;28;20218;-71
2022/08/09 04:46:44;;;;;;;5.23;2.30;;;;;;;;;;5072383;28;20202;-71
2022/08/09 04:49:10;;;;;;;3.73;2.40;;;;;;;;;;5068424;28;20193;-71
2022/08/09 04:51:36;;;;;;;5.20;2.30;;;;;;;;;;5076110;28;20185;-71
2022/08/09 04:54:03;;;;;;;4.40;2.47;;;;;;;;;;5085694;28;20185;-71
2022/08/09 04:56:29;;;;;;;5.17;2.60;;;;;;;;;;5073707;28;20243;-71
2022/08/09 04:58:56;;;;;;;4.60;2.50;;;;;;;;;;5092058;28;20308;-71
2022/08/09 05:01:22;;;;;;;3.63;2.50;;;;;;;;;;5060839;28;20189;-71
2022/08/09 05:03:48;;;;;;;3.03;2.20;;;;;;;;;;5077621;28;20535;-71
2022/08/09 05:06:15;;;;;;;5.43;2.30;;;;;;;;;;5084508;28;20579;-71
2022/08/09 05:08:41;;;;;;;3.10;2.20;;;;;;;;;;5062266;28;20725;-71
2022/08/09 05:11:08;;;;;;;2.30;2.10;;;;;;;;;;5061886;28;20236;-71
2022/08/09 05:13:34;;;;;;;3.00;2.33;;;;;;;;;;5070477;28;20558;-71
2022/08/09 05:16:03;;;;;;;3.53;2.33;;;;;;;;;;5061462;28;20216;-71
2022/08/09 05:18:35;;;;;;;3.53;2.10;;;;;;;;;;5063228;28;20239;-71
2022/08/09 05:21:01;;;;;;;2.03;1.70;;;;;;;;;;5059680;28;20303;-71
2022/08/09 05:23:27;;;;;;;2.57;1.80;;;;;;;;;;5066705;28;20174;-71
2022/08/09 05:25:54;;;;;;;2.10;1.90;;;;;;;;;;5063761;28;20201;-71
2022/08/09 05:28:20;;;;;;;2.30;2.10;;;;;;;;;;5061970;28;20254;-71
2022/08/09 05:30:47;;;;;;;4.03;2.30;;;;;;;;;;5059781;28;20678;-72
2022/08/09 05:33:13;;;;;;;4.03;2.30;;;;;;;;;;5085776;28;20208;-72
2022/08/09 05:35:39;;;;;;;3.37;2.10;;;;;;;;;;5087331;28;20243;-76
2022/08/09 05:38:05;;;;;;;3.83;2.10;;;;;;;;;;5066726;28;20217;-77
2022/08/09 05:40:32;;;;;;;2.40;2.20;;;;;;;;;;5075303;28;20177;-75
2022/08/09 05:42:58;;;;;;;2.83;2.07;;;;;;;;;;5076379;28;20184;-75
2022/08/09 05:45:24;;;;;;;3.43;2.10;;;;;;;;;;5054028;28;20242;-76
2022/08/09 05:47:50;;;;;;;4.20;2.33;;;;;;;;;;5069125;28;20212;-77
2022/08/09 05:50:16;;;;;;;2.73;2.30;;;;;;;;;;5086891;28;20196;-77
2022/08/09 05:52:43;;;;;;;3.90;2.40;;;;;;;;;;5085550;28;20181;-76
2022/08/09 05:55:09;;;;;;;2.90;2.13;;;;;;;;;;5075056;28;20228;-77
2022/08/09 05:57:36;;;;;;;4.43;2.40;;;;;;;;;;5065873;28;20199;-77
2022/08/09 06:00:09;;;;;;;5.60;2.37;;;;;;;;;;5059728;28;20181;-76
2022/08/09 06:02:38;;;;;;;5.17;2.37;;;;;;;;;;5082902;28;20176;-76
2022/08/09 06:05:05;;;;;;;4.73;2.63;;;;;;;;;;5065278;28;20221;-77
2022/08/09 06:07:33;;;;;;;3.20;2.20;;;;;;;;;;5068706;28;20192;-77
2022/08/09 06:10:00;;;;;;;3.57;2.30;;;;;;;;;;5066050;28;20811;-78
2022/08/09 06:12:26;;;;;;;4.37;2.47;;;;;;;;;;5079748;28;20656;-77
2022/08/09 06:14:53;;;;;;;3.73;2.30;;;;;;;;;;5059115;28;20191;-77
2022/08/09 06:17:19;;;;;;;4.50;2.87;;;;;;;;;;5083345;28;20187;-77
2022/08/09 06:19:45;;;;;;;3.43;2.70;;;;;;;;;;5091782;28;20204;-77
2022/08/09 06:22:11;;;;;;;2.90;2.50;;;;;;;;;;5076570;28;20207;-77
2022/08/09 06:24:37;;;;;;;4.87;2.40;;;;;;;;;;5074564;28;20283;-75
2022/08/09 06:27:03;;;;;;;3.27;2.10;;;;;;;;;;5070037;28;20593;-75
2022/08/09 06:29:30;;;;;;;3.30;2.23;;;;;;;;;;5077491;28;20705;-75
2022/08/09 06:31:56;;;;;;;3.47;2.30;;;;;;;;;;5076727;28;20576;-75
2022/08/09 06:34:22;;;;;;;3.87;2.30;;;;;;;;;;5076369;28;20180;-75
2022/08/09 06:36:48;;;;;;;3.37;2.47;;;;;;;;;;5076795;28;20197;-75
2022/08/09 06:39:14;;;;;;;4.33;2.40;;;;;;;;;;5077237;28;20201;-75
2022/08/09 06:41:40;;;;;;;5.33;3.43;;;;;;;;;;5076596;28;20175;-76
2022/08/09 06:44:13;;;;;;;3.37;2.33;;;;;;;;;;5076074;28;20681;-75
2022/08/09 06:46:39;;;;;;;5.33;2.50;;;;;;;;;;5077089;28;20200;-76
2022/08/09 06:49:05;;;;;;;3.10;2.33;;;;;;;;;;5074425;28;20207;-75
2022/08/09 06:51:34;;;;;;;2.73;2.10;;;;;;;;;;5076617;28;20231;-75
2022/08/09 06:54:01;;;;;;;2.67;2.20;;;;;;;;;;5077099;28;20302;-75
2022/08/09 06:56:27;;;;;;;2.77;2.57;;;;;;;;;;5077254;28;20296;-78
2022/08/09 06:58:53;;;;;;;3.97;2.40;;;;;;;;;;5078536;28;20250;-74
2022/08/09 07:01:19;;;;;;;3.10;2.50;;;;;;;;;;5075132;28;20193;-75
2022/08/09 07:03:45;;;;;;;3.40;2.10;;;;;;;;;;5071175;28;20765;-75
2022/08/09 07:06:11;;;;;;;3.77;2.20;;;;;;;;;;5059594;28;20268;-75
2022/08/09 07:08:38;;;;;;;3.97;2.40;;;;;;;;;;5077386;28;20182;-75
2022/08/09 07:11:04;;;;;;;4.03;2.30;;;;;;;;;;5067363;28;20257;-74
2022/08/09 07:13:30;;;;;;;6.17;2.37;;;;;;;;;;5068100;28;20195;-74
2022/08/09 07:15:57;;;;;;;4.47;2.23;;;;;;;;;;5076875;28;20201;-74
2022/08/09 07:18:23;;;;;;;2.67;2.10;;;;;;;;;;5059074;28;20210;-75
2022/08/09 07:20:51;;;;;;;3.17;2.00;;;;;;;;;;5060702;28;20208;-75
2022/08/09 07:23:18;;;;;;;5.47;2.20;;;;;;;;;;5071581;28;20299;-75
2022/08/09 07:25:44;;;;;;;2.40;2.20;;;;;;;;;;5076903;28;20251;-75
2022/08/09 07:28:11;;;;;;;3.30;2.30;;;;;;;;;;5076753;28;20181;-75
2022/08/09 07:30:38;;;;;;;2.90;2.13;;;;;;;;;;5057946;28;20197;-75
2022/08/09 07:33:04;;;;;;;2.37;2.10;;;;;;;;;;5057279;28;20184;-75
2022/08/09 07:35:30;;;;;;;3.90;2.10;;;;;;;;;;5074342;28;20209;-75
2022/08/09 07:37:56;;;;;;;2.70;2.23;;;;;;;;;;5072532;28;20209;-75
2022/08/09 07:40:22;;;;;;;5.43;2.20;;;;;;;;;;5073570;28;20169;-75
2022/08/09 07:42:53;;;;;;;2.40;2.10;;;;;;;;;;5073289;28;20169;-75
2022/08/09 07:45:25;;;;;;;3.47;2.30;;;;;;;;;;5073336;28;20197;-74
2022/08/09 07:47:52;;;;;;;2.60;2.10;;;;;;;;;;5070734;28;20200;-74
2022/08/09 07:50:23;;;;;;;3.87;2.17;;;;;;;;;;5073183;28;20559;-75
2022/08/09 07:52:49;;;;;;;5.13;2.20;;;;;;;;;;5073136;28;20177;-75
2022/08/09 07:55:16;;;;;;;2.77;2.17;;;;;;;;;;5070153;28;20284;-75
2022/08/09 07:57:44;;;;;;;4.07;2.10;;;;;;;;;;5057729;28;20713;-75
2022/08/09 08:00:11;;;;;;;2.83;2.30;;;;;;;;;;5069409;28;20920;-74
2022/08/09 08:02:40;;;;;;;3.20;1.90;;;;;;;;;;5067141;28;20634;-74
2022/08/09 08:05:06;;;;;;;2.70;2.10;;;;;;;;;;5072039;28;20193;-75
2022/08/09 08:07:33;;;;;;;4.23;2.00;;;;;;;;;;5073419;28;20269;-75
2022/08/09 08:09:59;;;;;;;2.03;1.93;;;;;;;;;;5072984;28;20173;-75
2022/08/09 08:12:25;;;;;;;2.10;1.93;;;;;;;;;;5071763;28;20654;-75
2022/08/09 08:14:51;;;;;;;5.87;2.30;;;;;;;;;;5071652;28;20181;-75
2022/08/09 08:17:17;;;;;;;2.43;2.03;;;;;;;;;;5071507;28;20177;-75
2022/08/09 08:19:43;;;;;;;3.07;2.20;;;;;;;;;;5067541;28;20213;-76
2022/08/09 08:22:10;;;;;;;4.03;2.10;;;;;;;;;;5062190;28;20184;-72
2022/08/09 08:24:36;;;;;;;3.30;2.23;;;;;;;;;;5062845;28;20181;-75
2022/08/09 08:27:02;;;;;;;3.77;1.90;;;;;;;;;;5062487;28;20198;-75
2022/08/09 08:29:29;;;;;;;4.23;2.30;;;;;;;;;;5064566;28;20603;-75
2022/08/09 08:31:55;;;;;;;2.10;1.90;;;;;;;;;;5067899;28;20188;-74
2022/08/09 08:34:21;;;;;;;3.20;2.20;;;;;;;;;;5075304;28;20641;-75
2022/08/09 08:36:47;;;;;;;2.90;1.83;;;;;;;;;;5066276;28;20273;-75
2022/08/09 08:39:14;;;;;;;2.77;1.90;;;;;;;;;;5059705;28;20249;-75
2022/08/09 08:41:40;;;;;;;2.23;2.00;;;;;;;;;;5074160;28;20181;-75
2022/08/09 08:44:11;;;;;;;2.77;1.80;;;;;;;;;;5057268;28;20174;-75
2022/08/09 08:46:39;;;;;;;2.27;2.07;;;;;;;;;;5062186;28;20192;-75
2022/08/09 08:49:06;;;;;;;5.37;2.20;;;;;;;;;;5061272;28;20181;-75
2022/08/09 08:51:32;;;;;;;2.50;2.10;;;;;;;;;;5076316;28;20238;-75
2022/08/09 08:54:05;;;;;;;3.23;2.00;;;;;;;;;;5083246;28;20255;-75
2022/08/09 08:56:38;;;;;;;3.13;2.10;;;;;;;;;;5085515;28;20238;-75
2022/08/09 08:59:05;;;;;;;2.37;2.00;;;;;;;;;;5052241;28;20201;-75
2022/08/09 09:01:33;;;;;;;2.37;2.03;;;;;;;;;;5064667;28;20265;-75
2022/08/09 09:03:59;;;;;;;2.33;2.13;;;;;;;;;;5058444;28;20224;-74
2022/08/09 09:06:25;;;;;;;3.00;1.90;;;;;;;;;;5080302;28;20201;-75
2022/08/09 09:08:52;;;;;;;4.37;2.00;;;;;;;;;;5060502;28;20185;-75
2022/08/09 09:11:19;;;;;;;4.73;2.10;;;;;;;;;;5058999;28;20197;-74
2022/08/09 09:13:46;;;;;;;6.17;2.10;;;;;;;;;;5065864;28;20178;-77
2022/08/09 09:16:13;;;;;;;5.83;1.70;;;;;;;;;;5057991;28;20216;-76
2022/08/09 09:18:39;;;;;;;3.37;1.90;;;;;;;;;;5069226;28;20268;-78
2022/08/09 09:21:08;;;;;;;1.90;1.80;;;;;;;;;;5071840;28;20212;-73
2022/08/09 09:23:44;;;;;;;4.97;1.80;;;;;;;;;;5069257;28;20279;-71
2022/08/09 09:26:12;;;;;;;4.30;2.20;;;;;;;;;;5078145;28;20204;-71
2022/08/09 09:28:42;;;;;;;2.83;1.90;;;;;;;;;;5064408;28;20179;-71
2022/08/09 09:31:12;;;;;;;3.80;2.10;;;;;;;;;;5065912;28;20180;-71
2022/08/09 09:33:38;;;;;;;3.57;1.87;;;;;;;;;;5061182;28;20188;-71
2022/08/09 09:36:06;;;;;;;6.03;1.70;;;;;;;;;;5063970;28;20682;-71
2022/08/09 09:38:55;;;;;;;4.50;1.70;;;;;;;;;;5056087;28;20201;-71
2022/08/09 09:41:27;;;;;;;5.10;1.97;;;;;;;;;;5060139;28;20261;-70
2022/08/09 09:43:57;;;;;;;4.07;1.90;;;;;;;;;;5069453;28;20192;-73
2022/08/09 09:46:27;;;;;;;2.20;2.00;;;;;;;;;;5062510;28;20253;-72
2022/08/09 09:48:58;;;;;;;2.00;1.80;;;;;;;;;;5065896;28;20192;-72
2022/08/09 09:51:28;;;;;;;1.80;1.70;;;;;;;;;;5072759;28;20273;-72
2022/08/09 09:54:04;;;;;;;3.50;2.10;;;;;;;;;;5074514;28;20184;-77
2022/08/09 09:56:31;;;;;;;2.00;1.80;;;;;;;;;;5064437;28;20274;-76
2022/08/09 09:58:58;;;;;;;3.50;2.03;;;;;;;;;;5057764;28;20208;-77
2022/08/09 10:01:25;;;;;;;3.90;2.00;;;;;;;;;;5062587;28;20261;-80
2022/08/09 10:03:52;;;;;;;5.87;1.70;;;;;;;;;;5058566;28;20533;-71
2022/08/09 10:06:19;;;;;;;3.33;1.73;;;;;;;;;;5061575;28;20201;-71
2022/08/09 10:08:46;;;;;;;2.40;1.87;;;;;;;;;;5056814;28;20187;-71
2022/08/09 10:11:17;;;;;;;2.67;2.13;;;;;;;;;;5068051;28;20204;-71
2022/08/09 10:13:43;;;;;;;2.97;1.90;;;;;;;;;;5074126;28;20730;-71
2022/08/09 10:16:09;;;;;;;7.03;1.97;;;;;;;;;;5075569;28;20201;-71
2022/08/09 10:18:36;;;;;;;2.90;1.80;;;;;;;;;;5068777;28;20577;-70
2022/08/09 10:21:08;;;;;;;4.30;2.00;;;;;;;;;;5065838;28;20190;-71
2022/08/09 10:23:36;;;;;;;2.43;1.70;;;;;;;;;;5059335;28;20562;-71
2022/08/09 10:26:02;;;;;;;3.13;1.70;;;;;;;;;;5055667;28;20214;-71
2022/08/09 10:28:30;;;;;;;3.20;2.00;;;;;;;;;;5058859;28;20180;-71
2022/08/09 10:30:56;;;;;;;1.97;1.77;;;;;;;;;;5064940;28;20197;-71
2022/08/09 10:33:23;;;;;;;3.03;1.90;;;;;;;;;;5063677;28;20643;-71
2022/08/09 10:35:50;;;;;;;4.77;2.00;;;;;;;;;;5063691;28;20208;-73
2022/08/09 10:38:17;;;;;;;3.63;1.87;;;;;;;;;;5070603;28;20208;-76
2022/08/09 10:40:44;;;;;;;1.80;1.70;;;;;;;;;;5063450;28;20193;-74
2022/08/09 10:43:11;;;;;;;3.63;1.90;;;;;;;;;;5056583;28;20210;-74
2022/08/09 10:45:39;;;;;;;1.90;1.63;;;;;;;;;;5063164;28;20623;-74
2022/08/09 10:48:10;;;;;;;2.67;1.60;;;;;;;;;;5052093;28;20254;-75
2022/08/09 10:53:37;;;;;;;2.03;1.80;;;;;;;;;;5086692;28;20194;-74
2022/08/09 10:56:24;;;;;;;1.63;1.53;;;;;;;;;;5068267;28;20299;-73
2022/08/09 10:58:51;;;;;;;1.90;1.80;;;;;;;;;;5070681;28;20189;-74
2022/08/09 11:01:32;;;;;;;4.70;4.03;;;;;;;;;;5083457;28;20178;-77
2022/08/09 11:04:07;;;;;;;3.20;1.93;;;;;;;;;;5077514;28;20269;-74
2022/08/09 11:06:36;;;;;;;2.37;1.80;;;;;;;;;;5058444;28;20203;-75
2022/08/09 11:09:03;;;;;;;2.57;1.90;;;;;;;;;;5058311;28;20282;-75
2022/08/09 11:11:51;;;;;;;1.83;1.73;;;;;;;;;;5068416;28;20204;-72
2022/08/09 11:14:36;;;;;;;1.80;1.60;;;;;;;;;;5069795;28;20238;-74
2022/08/09 11:17:23;;;;;;;2.70;1.70;;;;;;;;;;5068745;28;20208;-74
2022/08/09 11:19:49;;;;;;;2.27;1.73;;;;;;;;;;5064516;28;20225;-75
2022/08/09 11:22:16;;;;;;;2.47;1.90;;;;;;;;;;5067350;28;20227;-74
2022/08/09 11:25:02;;;;;;;3.80;1.87;;;;;;;;;;5069182;28;20250;-75
2022/08/09 11:27:32;;;;;;;2.20;2.00;;;;;;;;;;5067521;28;20188;-74
2022/08/09 11:29:59;;;;;;;5.33;1.80;;;;;;;;;;5070379;28;20190;-74
2022/08/09 11:32:44;;;;;;;2.33;2.00;;;;;;;;;;5069539;28;20179;-74
2022/08/09 11:35:22;;;;;;;2.17;1.70;;;;;;;;;;5071028;28;20191;-74
2022/08/09 11:37:50;;;;;;;6.40;2.20;;;;;;;;;;5071422;28;20181;-74
2022/08/09 11:40:29;;;;;;;3.17;1.63;;;;;;;;;;5069836;28;20206;-74
2022/08/09 11:42:56;;;;;;;3.73;1.90;;;;;;;;;;5068953;28;20809;-74
2022/08/09 11:45:24;;;;;;;4.03;1.90;;;;;;;;;;5070646;28;20200;-74
2022/08/09 11:47:52;;;;;;;3.73;2.00;;;;;;;;;;5071803;28;20170;-74
2022/08/09 11:50:18;;;;;;;4.33;1.50;;;;;;;;;;5069002;28;20180;-74
2022/08/09 11:53:01;;;;;;;2.17;1.70;;;;;;;;;;5071260;28;20573;-74
2022/08/09 11:55:31;;;;;;;2.17;1.90;;;;;;;;;;5069462;28;20547;-74
2022/08/09 11:58:02;;;;;;;2.63;1.57;;;;;;;;;;5069014;28;20694;-74
2022/08/09 12:00:32;;;;;;;3.50;1.87;;;;;;;;;;5068551;28;20298;-74
2022/08/09 12:02:59;;;;;;;2.40;1.70;;;;;;;;;;5067312;28;20178;-74
2022/08/09 12:05:33;;;;;;;1.87;1.70;;;;;;;;;;5071682;28;20609;-79
2022/08/09 12:07:59;;;;;;;2.60;1.97;;;;;;;;;;5073520;28;20270;-75
2022/08/09 12:10:26;;;;;;;1.97;1.63;;;;;;;;;;5072476;28;20180;-77
2022/08/09 12:12:52;;;;;;;5.67;1.90;;;;;;;;;;5075226;28;20208;-77
2022/08/09 12:15:26;;;;;;;5.40;1.80;;;;;;;;;;5068388;28;20203;-76
2022/08/09 12:17:53;;;;;;;2.80;1.70;;;;;;;;;;5073202;28;20191;-78
2022/08/09 12:20:24;;;;;;;3.10;1.87;;;;;;;;;;5069902;28;20276;-73
2022/08/09 12:22:55;;;;;;;3.87;1.70;;;;;;;;;;5067895;28;20191;-75
2022/08/09 12:25:21;;;;;;;2.30;1.70;;;;;;;;;;5066918;28;20315;-75
2022/08/09 12:27:47;;;;;;;1.70;1.60;;;;;;;;;;5069325;28;20180;-75
2022/08/09 12:30:14;;;;;;;2.07;1.50;;;;;;;;;;5066272;28;20226;-76
2022/08/09 12:32:40;;;;;;;1.80;1.70;;;;;;;;;;5068432;28;20673;-77
2022/08/09 12:35:07;;;;;;;2.47;1.87;;;;;;;;;;5069172;28;20198;-73
2022/08/09 12:37:34;;;;;;;1.40;1.30;;;;;;;;;;5069988;28;20177;-74
2022/08/09 12:40:08;;;;;;;5.00;1.60;;;;;;;;;;5063766;28;20214;-73
2022/08/09 12:42:34;;;;;;;2.13;1.40;;;;;;;;;;5070172;28;20192;-73
2022/08/09 12:45:01;;;;;;;2.30;1.60;;;;;;;;;;5069611;28;20208;-73
2022/08/09 12:47:28;;;;;;;2.87;1.50;;;;;;;;;;5070157;28;20679;-74
2022/08/09 12:52:41;;;;;;;2.43;1.60;;;;;;;;;;5068022;28;20267;-74
2022/08/09 12:55:08;;;;;;;2.03;1.50;;;;;;;;;;5069145;28;20231;-74
2022/08/09 12:57:45;;;;;;;2.03;1.40;;;;;;;;;;5069301;28;20216;-74
2022/08/09 13:00:22;;;;;;;1.90;1.60;;;;;;;;;;5069517;28;20188;-74
2022/08/09 13:02:48;;;;;;;2.60;1.40;;;;;;;;;;5066663;28;20182;-74
2022/08/09 13:05:16;;;;;;;4.30;1.57;;;;;;;;;;5067767;28;20210;-74
2022/08/09 13:07:43;;;;;;;1.70;1.60;;;;;;;;;;5066361;28;20656;-74
2022/08/09 13:10:09;;;;;;;2.13;1.50;;;;;;;;;;5068704;28;20176;-74
2022/08/09 13:12:46;;;;;;;7.23;1.50;;;;;;;;;;5063174;28;20550;-73
2022/08/09 13:15:13;;;;;;;1.60;1.50;;;;;;;;;;5065893;28;20694;-73
2022/08/09 13:17:39;;;;;;;1.57;1.27;;;;;;;;;;5069459;28;20193;-75
2022/08/09 13:20:07;;;;;;;2.00;1.50;;;;;;;;;;5066988;28;20214;-74
2022/08/09 13:22:33;;;;;;;2.60;1.37;;;;;;;;;;5063359;28;20188;-75
2022/08/09 13:25:00;;;;;;;2.60;1.33;;;;;;;;;;5067495;28;20249;-75
2022/08/09 13:27:27;;;;;;;3.10;1.50;;;;;;;;;;5068905;28;20204;-75
2022/08/09 13:29:56;;;;;;;2.17;1.40;;;;;;;;;;5066996;28;20249;-75
2022/08/09 13:32:22;;;;;;;3.60;1.60;;;;;;;;;;5065584;28;20207;-74
2022/08/09 13:34:48;;;;;;;2.97;1.40;;;;;;;;;;5069248;28;20615;-75
2022/08/09 13:37:15;;;;;;;3.10;1.40;;;;;;;;;;5066875;28;20211;-76
2022/08/09 13:39:42;;;;;;;4.20;1.50;;;;;;;;;;5068981;28;20302;-76
2022/08/09 13:42:10;;;;;;;2.88;1.30;;;;;;;;;;5066024;28;20184;-75
2022/08/09 13:44:36;;;;;;;2.30;1.40;;;;;;;;;;5069467;28;20188;-75
2022/08/09 13:47:05;;;;;;;1.80;1.50;;;;;;;;;;5068544;28;20254;-76
2022/08/09 13:49:32;;;;;;;4.00;1.70;;;;;;;;;;5064236;28;20188;-76
2022/08/09 13:51:58;;;;;;;1.60;1.42;;;;;;;;;;5067117;28;20212;-76
2022/08/09 13:54:24;;;;;;;1.63;1.52;;;;;;;;;;5067489;28;20237;-76
2022/08/09 13:56:50;;;;;;;1.63;1.52;;;;;;;;;;5064732;28;20889;-74
2022/08/09 13:59:16;;;;;;;1.90;1.30;;;;;;;;;;5068620;28;20214;-74
2022/08/09 14:01:43;;;;;;;1.95;1.23;;;;;;;;;;5069869;28;20178;-76
2022/08/09 14:04:09;;;;;;;1.55;1.40;;;;;;;;;;5066430;28;20206;-73
2022/08/09 14:06:35;;;;;;;2.25;1.50;;;;;;;;;;5068171;28;20953;-73
2022/08/09 14:09:01;;;;;;;2.25;1.40;;;;;;;;;;5066357;28;20195;-73
2022/08/09 14:11:27;;;;;;;1.92;1.40;;;;;;;;;;5064148;28;20198;-71
2022/08/09 14:13:53;;;;;;;2.00;1.48;;;;;;;;;;5068012;28;20242;-74
2022/08/09 14:16:21;;;;;;;1.73;1.52;;;;;;;;;;5067844;28;20210;-73
2022/08/09 14:18:49;;;;;;;2.33;1.60;;;;;;;;;;5063503;28;20202;-72
2022/08/09 14:21:16;;;;;;;1.95;1.40;;;;;;;;;;5064994;28;20603;-73
2022/08/09 14:23:43;;;;;;;2.35;1.65;;;;;;;;;;5066322;28;20281;-72
2022/08/09 14:26:10;;;;;;;3.53;1.40;;;;;;;;;;5065994;28;20297;-74
2022/08/09 14:28:36;;;;;;;1.67;1.50;;;;;;;;;;5068147;28;20188;-72
2022/08/09 14:31:02;;;;;;;2.55;1.55;;;;;;;;;;5066063;28;20527;-71
2022/08/09 14:33:28;;;;;;;2.17;1.40;;;;;;;;;;5064782;28;20671;-72
2022/08/09 14:35:55;;;;;;;3.22;1.55;;;;;;;;;;5066376;28;20201;-70
2022/08/09 14:38:21;;;;;;;1.63;1.30;;;;;;;;;;5066919;28;20205;-71
2022/08/09 14:40:47;;;;;;;2.97;1.60;;;;;;;;;;5065856;28;20250;-71
2022/08/09 14:43:14;;;;;;;2.45;1.38;;;;;;;;;;5063731;28;20657;-71
2022/08/09 14:45:40;;;;;;;2.40;1.38;;;;;;;;;;5068699;28;20753;-71
2022/08/09 14:48:06;;;;;;;2.95;1.60;;;;;;;;;;5071915;28;20211;-71
2022/08/09 14:50:33;;;;;;;2.38;1.40;;;;;;;;;;5072452;28;20200;-69
2022/08/09 14:53:02;;;;;;;5.00;1.58;;;;;;;;;;5070978;28;20192;-70
2022/08/09 14:55:28;;;;;;;3.33;1.50;;;;;;;;;;5068457;28;20578;-70